createdAt,value
2022-09-23T00:01:01.697Z,43.85
2022-09-23T00:03:30.354Z,43.73
2022-09-23T00:06:03.657Z,44.11
2022-09-23T00:08:31.092Z,43.95
2022-09-23T00:11:06.915Z,44.90
2022-09-23T00:13:39.138Z,44.42
2022-09-23T00:16:08.329Z,44.60
2022-09-23T00:18:35.395Z,44.61
2022-09-23T00:21:03.954Z,44.50
2022-09-23T00:23:31.293Z,44.99
2022-09-23T00:26:00.686Z,44.92
2022-09-23T00:28:29.815Z,44.97
2022-09-23T00:30:57.193Z,44.74
2022-09-23T00:33:24.356Z,44.66
2022-09-23T00:35:51.399Z,44.66
2022-09-23T00:38:18.455Z,44.79
2022-09-23T00:40:46.463Z,45.16
2022-09-23T00:43:14.555Z,44.40
2022-09-23T00:45:48.722Z,44.99
2022-09-23T00:48:19.577Z,44.73
2022-09-23T00:50:53.574Z,44.59
2022-09-23T00:53:25.975Z,44.49
2022-09-23T00:55:57.313Z,45.10
2022-09-23T00:58:28.224Z,45.04
2022-09-23T01:00:59.015Z,44.97
2022-09-23T01:03:26.674Z,44.83
2022-09-23T01:05:54.374Z,45.26
2022-09-23T01:08:24.293Z,44.87
2022-09-23T01:11:09.735Z,45.10
2022-09-23T01:13:52.151Z,45.38
2022-09-23T01:16:30.310Z,45.43
2022-09-23T01:19:10.833Z,45.47
2022-09-23T01:21:52.772Z,45.56
2022-09-23T01:24:58.110Z,45.13
2022-09-23T01:27:51.948Z,45.44
2022-09-23T01:30:45.819Z,45.48
2022-09-23T01:33:24.612Z,45.44
2022-09-23T01:36:08.909Z,45.19
2022-09-23T01:38:45.318Z,45.24
2022-09-23T01:41:27.632Z,45.10
2022-09-23T01:44:04.270Z,45.05
2022-09-23T01:46:40.471Z,45.46
2022-09-23T01:49:15.430Z,45.68
2022-09-23T01:51:48.369Z,45.17
2022-09-23T01:54:22.670Z,45.79
2022-09-23T01:56:58.130Z,45.34
2022-09-23T01:59:34.830Z,45.68
2022-09-23T02:02:10.817Z,45.39
2022-09-23T02:04:46.111Z,45.69
2022-09-23T02:07:20.825Z,45.73
2022-09-23T02:09:55.630Z,45.89
2022-09-23T02:12:27.851Z,46.27
2022-09-23T02:15:03.171Z,45.74
2022-09-23T02:17:39.290Z,45.33
2022-09-23T02:20:08.270Z,46.14
2022-09-23T02:22:44.531Z,45.84
2022-09-23T02:25:11.798Z,45.53
2022-09-23T02:27:47.557Z,45.01
2022-09-23T02:30:18.708Z,45.16
2022-09-23T02:32:57.069Z,45.24
2022-09-23T02:35:31.303Z,45.35
2022-09-23T02:38:14.208Z,45.45
2022-09-23T02:40:52.670Z,46.09
2022-09-23T02:43:25.867Z,46.31
2022-09-23T02:45:53.046Z,45.71
2022-09-23T02:48:28.089Z,46.15
2022-09-23T02:50:55.887Z,45.88
2022-09-23T02:53:24.268Z,46.34
2022-09-23T02:55:51.448Z,46.21
2022-09-23T02:58:18.668Z,46.31
2022-09-23T03:01:00.057Z,45.60
2022-09-23T03:03:40.767Z,46.24
2022-09-23T03:06:23.387Z,46.33
2022-09-23T03:09:00.849Z,53.97
2022-09-23T03:11:28.509Z,53.91
2022-09-23T03:14:12.449Z,52.41
2022-09-23T03:16:45.501Z,52.43
2022-09-23T03:19:26.369Z,51.53
2022-09-23T03:22:02.563Z,50.85
2022-09-23T03:24:33.568Z,49.96
2022-09-23T03:27:07.668Z,49.07
2022-09-23T03:29:36.158Z,49.00
2022-09-23T03:32:04.737Z,48.02
2022-09-23T03:34:37.170Z,47.79
2022-09-23T03:37:13.429Z,47.89
2022-09-23T03:39:44.768Z,46.30
2022-09-23T03:42:19.087Z,46.82
2022-09-23T03:44:47.948Z,46.17
2022-09-23T03:47:16.870Z,46.04
2022-09-23T03:49:47.708Z,45.85
2022-09-23T03:52:15.308Z,45.94
2022-09-23T03:54:42.767Z,45.91
2022-09-23T03:57:11.156Z,45.93
2022-09-23T03:59:38.449Z,44.82
2022-09-23T04:02:06.943Z,45.08
2022-09-23T04:04:36.348Z,45.31
2022-09-23T04:07:05.428Z,45.21
2022-09-23T04:09:32.619Z,44.98
2022-09-23T04:11:59.687Z,45.28
2022-09-23T04:14:27.387Z,44.73
2022-09-23T04:16:54.468Z,45.27
2022-09-23T04:19:21.655Z,44.86
2022-09-23T04:21:49.108Z,44.69
2022-09-23T04:24:17.959Z,44.76
2022-09-23T04:26:45.049Z,44.70
2022-09-23T04:29:12.208Z,44.93
2022-09-23T04:31:39.451Z,45.07
2022-09-23T04:34:06.589Z,44.97
2022-09-23T04:36:33.649Z,44.80
2022-09-23T04:39:01.973Z,44.63
2022-09-23T04:41:30.527Z,45.08
2022-09-23T04:43:57.888Z,44.75
2022-09-23T04:46:25.241Z,45.06
2022-09-23T04:48:52.378Z,44.89
2022-09-23T04:51:21.906Z,44.83
2022-09-23T04:53:51.348Z,44.86
2022-09-23T04:56:20.560Z,45.08
2022-09-23T04:58:50.351Z,44.66
2022-09-23T05:01:20.034Z,44.55
2022-09-23T05:03:47.521Z,44.74
2022-09-23T05:06:15.111Z,44.86
2022-09-23T05:08:47.267Z,44.63
2022-09-23T05:11:14.413Z,44.55
2022-09-23T05:13:41.489Z,44.53
2022-09-23T05:16:11.226Z,44.62
2022-09-23T05:18:39.768Z,44.45
2022-09-23T05:21:07.611Z,44.14
2022-09-23T05:23:34.769Z,44.49
2022-09-23T05:26:05.429Z,44.01
2022-09-23T05:28:33.608Z,44.49
2022-09-23T05:31:05.411Z,44.27
2022-09-23T05:33:35.709Z,44.32
2022-09-23T05:36:04.553Z,44.81
2022-09-23T05:38:32.190Z,44.73
2022-09-23T05:41:01.249Z,44.47
2022-09-23T05:43:28.491Z,44.91
2022-09-23T05:46:05.972Z,44.63
2022-09-23T05:48:37.728Z,44.55
2022-09-23T05:51:05.662Z,44.65
2022-09-23T05:53:32.760Z,44.73
2022-09-23T05:55:59.950Z,44.74
2022-09-23T05:58:27.125Z,44.44
2022-09-23T06:00:54.281Z,44.27
2022-09-23T06:03:21.579Z,44.72
2022-09-23T06:05:52.818Z,45.09
2022-09-23T06:08:20.197Z,44.57
2022-09-23T06:10:52.164Z,44.69
2022-09-23T06:13:22.110Z,44.88
2022-09-23T06:15:49.249Z,44.68
2022-09-23T06:18:16.388Z,44.76
2022-09-23T06:20:43.349Z,44.67
2022-09-23T06:23:11.819Z,44.68
2022-09-23T06:25:39.030Z,44.60
2022-09-23T06:28:06.209Z,44.57
2022-09-23T06:30:33.272Z,44.52
2022-09-23T06:33:00.388Z,44.39
2022-09-23T06:35:27.953Z,44.36
2022-09-23T06:37:56.231Z,47.18
2022-09-23T06:40:25.076Z,45.50
2022-09-23T06:42:57.829Z,43.05
2022-09-23T06:45:25.328Z,42.43
2022-09-23T06:47:54.448Z,40.47
2022-09-23T06:50:21.709Z,41.81
2022-09-23T06:52:51.489Z,42.48
2022-09-23T06:55:18.549Z,42.38
2022-09-23T06:57:47.010Z,42.42
2022-09-23T07:00:14.569Z,42.61
2022-09-23T07:02:41.926Z,42.95
2022-09-23T07:05:09.308Z,42.37
2022-09-23T07:07:37.289Z,42.71
2022-09-23T07:10:06.023Z,42.74
2022-09-23T07:12:33.429Z,41.71
2022-09-23T07:15:01.971Z,42.30
2022-09-23T07:17:29.091Z,42.05
2022-09-23T07:19:56.164Z,41.92
2022-09-23T07:22:24.070Z,42.45
2022-09-23T07:24:51.749Z,44.22
2022-09-23T07:27:18.872Z,42.79
2022-09-23T07:29:48.764Z,41.59
2022-09-23T07:32:17.770Z,39.96
2022-09-23T07:34:45.110Z,38.22
2022-09-23T07:37:12.169Z,38.68
2022-09-23T07:39:39.314Z,38.03
2022-09-23T07:42:06.791Z,38.37
2022-09-23T07:44:34.399Z,38.50
2022-09-23T07:47:02.371Z,38.09
2022-09-23T07:49:30.892Z,36.96
2022-09-23T07:51:57.951Z,37.31
2022-09-23T07:54:25.091Z,37.43
2022-09-23T07:56:52.172Z,37.68
2022-09-23T07:59:19.371Z,38.01
2022-09-23T08:01:49.540Z,37.81
2022-09-23T08:04:20.573Z,36.17
2022-09-23T08:06:51.889Z,37.93
2022-09-23T08:09:21.283Z,37.19
2022-09-23T08:11:48.811Z,37.19
2022-09-23T08:14:17.258Z,36.66
2022-09-23T08:16:45.690Z,36.17
2022-09-23T08:19:13.614Z,34.34
2022-09-23T08:21:41.272Z,35.36
2022-09-23T08:24:14.209Z,36.70
2022-09-23T08:26:41.346Z,35.87
2022-09-23T08:29:08.871Z,37.02
2022-09-23T08:31:36.113Z,36.58
2022-09-23T08:34:03.971Z,36.73
2022-09-23T08:36:31.711Z,36.50
2022-09-23T08:38:58.789Z,36.77
2022-09-23T08:41:39.890Z,36.54
2022-09-23T08:44:16.318Z,36.27
2022-09-23T08:46:51.071Z,36.84
2022-09-23T08:49:28.558Z,35.33
2022-09-23T08:52:02.311Z,35.49
2022-09-23T08:54:31.750Z,35.54
2022-09-23T08:57:05.092Z,35.39
2022-09-23T08:59:41.872Z,32.18
2022-09-23T09:02:18.728Z,35.36
2022-09-23T09:04:52.291Z,34.25
2022-09-23T09:07:36.336Z,32.39
2022-09-23T09:10:11.062Z,35.48
2022-09-23T09:12:44.517Z,31.41
2022-09-23T09:15:15.194Z,35.68
2022-09-23T09:17:51.198Z,35.63
2022-09-23T09:20:23.590Z,36.15
2022-09-23T09:22:55.150Z,35.41
2022-09-23T09:25:33.461Z,35.41
2022-09-23T09:28:04.994Z,35.03
2022-09-23T09:30:34.629Z,33.33
2022-09-23T09:33:06.510Z,32.36
2022-09-23T09:35:40.708Z,32.32
2022-09-23T09:38:08.731Z,34.80
2022-09-23T09:40:42.669Z,35.51
2022-09-23T09:43:17.590Z,34.59
2022-09-23T09:46:01.030Z,34.34
2022-09-23T09:48:38.558Z,35.17
2022-09-23T09:51:19.311Z,36.14
2022-09-23T09:53:46.331Z,34.47
2022-09-23T09:56:16.262Z,34.31
2022-09-23T09:58:50.633Z,33.84
2022-09-23T10:01:22.848Z,33.69
2022-09-23T10:03:55.563Z,32.36
2022-09-23T10:06:28.172Z,31.22
2022-09-23T10:09:17.109Z,34.79
2022-09-23T10:12:04.011Z,34.53
2022-09-23T10:14:32.530Z,33.97
2022-09-23T10:17:05.898Z,31.64
2022-09-23T10:19:36.430Z,35.54
2022-09-23T10:22:10.188Z,33.52
2022-09-23T10:24:37.283Z,34.77
2022-09-23T10:27:08.311Z,30.13
2022-09-23T10:29:40.870Z,34.36
2022-09-23T10:32:30.082Z,34.39
2022-09-23T10:35:01.891Z,34.69
2022-09-23T10:37:39.931Z,34.27
2022-09-23T10:40:18.792Z,34.88
2022-09-23T10:43:05.536Z,30.92
2022-09-23T10:45:41.203Z,31.13
2022-09-23T10:48:22.437Z,35.15
2022-09-23T10:50:52.767Z,30.95
2022-09-23T10:53:31.135Z,32.26
2022-09-23T10:56:22.797Z,33.36
2022-09-23T10:59:24.543Z,35.60
2022-09-23T11:02:06.196Z,35.10
2022-09-23T11:04:58.130Z,35.17
2022-09-23T11:07:38.631Z,34.16
2022-09-23T11:10:46.576Z,34.70
2022-09-23T11:13:29.688Z,34.89
2022-09-23T11:16:06.167Z,33.73
2022-09-23T11:19:06.100Z,31.90
2022-09-23T11:21:58.890Z,34.27
2022-09-23T11:24:57.075Z,31.94
2022-09-23T11:27:40.672Z,35.66
2022-09-23T11:30:10.794Z,33.53
2022-09-23T11:33:09.388Z,31.77
2022-09-23T11:35:45.974Z,32.31
2022-09-23T11:38:19.720Z,34.57
2022-09-23T11:40:52.223Z,33.13
2022-09-23T11:43:22.868Z,34.37
2022-09-23T11:45:57.547Z,35.32
2022-09-23T11:48:33.666Z,33.39
2022-09-23T11:51:09.838Z,30.78
2022-09-23T11:53:45.560Z,35.24
2022-09-23T11:56:32.725Z,35.35
2022-09-23T11:59:10.336Z,35.49
2022-09-23T12:01:45.801Z,35.76
2022-09-23T12:04:22.940Z,32.51
2022-09-23T12:07:00.290Z,34.91
2022-09-23T12:09:58.595Z,31.99
2022-09-23T12:12:35.449Z,31.23
2022-09-23T12:15:10.306Z,31.78
2022-09-23T12:17:59.624Z,35.12
2022-09-23T12:20:44.566Z,35.17
2022-09-23T12:23:36.522Z,35.70
2022-09-23T12:26:08.543Z,32.90
2022-09-23T12:28:40.685Z,35.39
2022-09-23T12:31:12.746Z,35.43
2022-09-23T12:33:40.765Z,34.16
2022-09-23T12:36:10.824Z,33.20
2022-09-23T12:38:48.348Z,34.64
2022-09-23T12:41:24.406Z,34.61
2022-09-23T12:43:54.067Z,32.22
2022-09-23T12:46:23.232Z,34.23
2022-09-23T12:49:04.231Z,34.36
2022-09-23T12:51:32.986Z,34.49
2022-09-23T12:54:21.692Z,34.21
2022-09-23T12:57:01.328Z,34.17
2022-09-23T12:59:31.408Z,34.02
2022-09-23T13:02:24.953Z,34.29
2022-09-23T13:04:59.450Z,33.78
2022-09-23T13:07:29.328Z,33.57
2022-09-23T13:10:08.752Z,33.66
2022-09-23T13:12:40.130Z,33.82
2022-09-23T13:15:21.772Z,33.14
2022-09-23T13:17:48.933Z,34.06
2022-09-23T13:20:36.789Z,33.24
2022-09-23T13:23:31.235Z,34.33
2022-09-23T13:26:02.909Z,34.12
2022-09-23T13:28:33.649Z,34.35
2022-09-23T13:31:05.403Z,34.30
2022-09-23T13:33:40.631Z,34.08
2022-09-23T13:36:14.131Z,34.37
2022-09-23T13:38:41.613Z,34.31
2022-09-23T13:41:14.936Z,34.21
2022-09-23T13:43:45.893Z,33.49
2022-09-23T13:46:19.108Z,33.13
2022-09-23T13:48:51.152Z,34.27
2022-09-23T13:51:24.112Z,34.18
2022-09-23T13:53:56.532Z,34.13
2022-09-23T13:56:28.213Z,34.18
2022-09-23T13:59:10.511Z,34.17
2022-09-23T14:01:37.767Z,34.17
2022-09-23T14:04:04.854Z,33.62
2022-09-23T14:06:36.250Z,33.92
2022-09-23T14:09:03.670Z,34.41
2022-09-23T14:11:35.226Z,33.61
2022-09-23T14:14:04.164Z,33.72
2022-09-23T14:16:31.388Z,34.03
2022-09-23T14:19:00.718Z,34.08
2022-09-23T14:21:31.403Z,33.76
2022-09-23T14:24:12.235Z,33.36
2022-09-23T14:26:43.620Z,33.59
2022-09-23T14:29:17.563Z,33.51
2022-09-23T14:31:53.253Z,36.39
2022-09-23T14:34:43.730Z,34.95
2022-09-23T14:37:27.020Z,35.16
2022-09-23T14:39:57.721Z,37.06
2022-09-23T14:42:26.644Z,35.90
2022-09-23T14:44:53.990Z,35.13
2022-09-23T14:47:21.124Z,33.92
2022-09-23T14:49:49.837Z,33.84
2022-09-23T14:52:17.357Z,34.35
2022-09-23T14:54:46.429Z,32.86
2022-09-23T14:57:29.398Z,34.00
2022-09-23T15:00:00.270Z,33.79
2022-09-23T15:02:36.128Z,34.30
2022-09-23T15:05:16.621Z,33.71
2022-09-23T15:07:47.678Z,34.47
2022-09-23T15:10:21.204Z,33.14
2022-09-23T15:12:52.480Z,34.15
2022-09-23T15:15:24.620Z,32.38
2022-09-23T15:17:51.801Z,33.17
2022-09-23T15:20:23.801Z,34.43
2022-09-23T15:22:52.700Z,33.63
2022-09-23T15:25:24.482Z,34.02
2022-09-23T15:28:01.923Z,34.29
2022-09-23T15:30:30.141Z,33.83
2022-09-23T15:32:57.262Z,34.34
2022-09-23T15:35:26.446Z,34.82
2022-09-23T15:37:57.323Z,35.12
2022-09-23T15:40:27.271Z,35.45
2022-09-23T15:42:56.925Z,34.82
2022-09-23T15:45:32.634Z,35.02
2022-09-23T15:48:04.643Z,36.66
2022-09-23T15:50:33.847Z,35.64
2022-09-23T15:53:01.124Z,34.56
2022-09-23T15:55:28.235Z,35.94
2022-09-23T15:57:55.343Z,36.54
2022-09-23T16:00:22.397Z,34.71
2022-09-23T16:02:52.810Z,35.92
2022-09-23T16:05:26.245Z,36.86
2022-09-23T16:07:53.385Z,35.49
2022-09-23T16:10:23.006Z,34.59
2022-09-23T16:12:54.198Z,33.83
2022-09-23T16:15:23.126Z,34.52
2022-09-23T16:17:52.025Z,34.43
2022-09-23T16:20:19.269Z,34.57
2022-09-23T16:22:53.549Z,35.66
2022-09-23T16:25:23.306Z,34.91
2022-09-23T16:27:50.369Z,35.26
2022-09-23T16:30:18.049Z,34.58
2022-09-23T16:32:45.067Z,34.54
2022-09-23T16:35:13.628Z,35.94
2022-09-23T16:37:40.687Z,35.51
2022-09-23T16:40:08.801Z,35.99
2022-09-23T16:42:35.972Z,36.32
2022-09-23T16:45:03.091Z,35.48
2022-09-23T16:47:30.146Z,35.42
2022-09-23T16:49:57.250Z,35.59
2022-09-23T16:52:25.969Z,36.54
2022-09-23T16:54:53.067Z,35.86
2022-09-23T16:57:20.169Z,36.61
2022-09-23T16:59:47.178Z,36.89
2022-09-23T17:02:14.389Z,36.41
2022-09-23T17:04:41.567Z,36.86
2022-09-23T17:07:08.587Z,37.24
2022-09-23T17:09:37.107Z,37.69
2022-09-23T17:12:13.836Z,37.08
2022-09-23T17:14:41.064Z,39.06
2022-09-23T17:17:08.145Z,41.14
2022-09-23T17:19:35.143Z,40.98
2022-09-23T17:22:02.179Z,40.80
2022-09-23T17:24:29.309Z,40.06
2022-09-23T17:26:57.766Z,41.27
2022-09-23T17:29:24.959Z,41.04
2022-09-23T17:31:52.186Z,39.77
2022-09-23T17:34:19.250Z,40.86
2022-09-23T17:36:46.686Z,40.19
2022-09-23T17:39:13.757Z,39.41
2022-09-23T17:41:40.884Z,38.77
2022-09-23T17:44:11.627Z,38.18
2022-09-23T17:46:38.711Z,36.38
2022-09-23T17:49:06.291Z,36.72
2022-09-23T17:51:33.455Z,37.07
2022-09-23T17:54:00.526Z,37.43
2022-09-23T17:56:27.847Z,37.54
2022-09-23T17:58:54.989Z,37.48
2022-09-23T18:01:25.729Z,38.07
2022-09-23T18:03:54.747Z,38.16
2022-09-23T18:06:29.815Z,38.80
2022-09-23T18:08:59.425Z,38.83
2022-09-23T18:11:29.229Z,38.77
2022-09-23T18:13:58.485Z,38.71
2022-09-23T18:16:28.993Z,38.18
2022-09-23T18:18:57.891Z,38.55
2022-09-23T18:21:27.770Z,38.74
2022-09-23T18:23:59.787Z,38.30
2022-09-23T18:26:34.949Z,38.05
2022-09-23T18:29:02.480Z,37.55
2022-09-23T18:31:33.525Z,37.81
2022-09-23T18:34:02.278Z,38.14
2022-09-23T18:36:29.973Z,37.71
2022-09-23T18:38:57.134Z,37.84
2022-09-23T18:41:24.169Z,37.45
2022-09-23T18:43:51.249Z,37.71
2022-09-23T18:46:21.479Z,37.84
2022-09-23T18:48:51.548Z,38.19
2022-09-23T18:51:20.549Z,38.54
2022-09-23T18:53:47.916Z,37.99
2022-09-23T18:56:16.948Z,37.81
2022-09-23T18:58:45.609Z,38.31
2022-09-23T19:01:13.542Z,38.35
2022-09-23T19:03:42.672Z,39.12
2022-09-23T19:06:18.186Z,38.98
2022-09-23T19:08:51.371Z,39.70
2022-09-23T19:11:19.653Z,39.59
2022-09-23T19:13:47.056Z,39.79
2022-09-23T19:16:16.132Z,40.32
2022-09-23T19:18:44.988Z,40.61
2022-09-23T19:21:15.572Z,40.85
2022-09-23T19:23:47.350Z,40.79
2022-09-23T19:26:16.212Z,40.17
2022-09-23T19:28:48.476Z,40.49
2022-09-23T19:31:17.833Z,40.36
2022-09-23T19:33:50.577Z,41.34
2022-09-23T19:36:23.911Z,40.60
2022-09-23T19:38:53.612Z,40.89
2022-09-23T19:41:20.670Z,40.81
2022-09-23T19:43:47.830Z,40.76
2022-09-23T19:46:15.007Z,40.76
2022-09-23T19:48:42.250Z,41.06
2022-09-23T19:51:09.369Z,41.62
2022-09-23T19:53:37.911Z,41.48
2022-09-23T19:56:05.263Z,41.11
2022-09-23T19:58:32.604Z,41.07
2022-09-23T20:01:00.300Z,40.93
2022-09-23T20:03:27.392Z,40.78
2022-09-23T20:05:55.563Z,40.13
2022-09-23T20:08:22.945Z,40.24
2022-09-23T20:10:51.804Z,39.92
2022-09-23T20:13:19.405Z,40.46
2022-09-23T20:15:48.699Z,40.31
2022-09-23T20:18:15.925Z,40.03
2022-09-23T20:20:43.004Z,40.27
2022-09-23T20:23:10.084Z,40.74
2022-09-23T20:25:37.164Z,40.56
2022-09-23T20:28:05.705Z,40.87
2022-09-23T20:30:32.805Z,40.43
2022-09-23T20:33:00.005Z,40.10
2022-09-23T20:35:27.136Z,40.20
2022-09-23T20:37:54.226Z,40.08
2022-09-23T20:40:21.361Z,39.94
2022-09-23T20:42:48.446Z,39.39
2022-09-23T20:45:16.966Z,39.37
2022-09-23T20:47:44.044Z,39.59
2022-09-23T20:50:11.408Z,39.42
2022-09-23T20:52:38.863Z,38.98
2022-09-23T20:55:07.253Z,39.35
2022-09-23T20:57:34.404Z,39.10
2022-09-23T21:00:02.102Z,39.31
2022-09-23T21:02:30.671Z,39.59
2022-09-23T21:04:57.685Z,39.30
2022-09-23T21:07:24.773Z,39.21
2022-09-23T21:09:52.077Z,39.50
2022-09-23T21:12:19.206Z,39.92
2022-09-23T21:14:46.764Z,40.39
2022-09-23T21:17:14.745Z,39.66
2022-09-23T21:19:43.235Z,39.78
2022-09-23T21:22:10.862Z,40.05
2022-09-23T21:25:25.284Z,40.50
2022-09-23T21:27:25.003Z,40.05
2022-09-23T21:29:56.225Z,40.41
2022-09-23T21:32:23.343Z,40.28
2022-09-23T21:34:51.843Z,40.92
2022-09-23T21:37:19.144Z,41.10
2022-09-23T21:39:46.223Z,40.81
2022-09-23T21:42:13.347Z,40.86
2022-09-23T21:44:40.626Z,41.42
2022-09-23T21:47:07.865Z,41.51
2022-09-23T21:49:35.105Z,41.42
2022-09-23T21:52:03.785Z,41.49
2022-09-23T21:54:30.946Z,41.31
2022-09-23T21:56:58.044Z,41.41
2022-09-23T21:59:25.145Z,41.05
2022-09-23T22:01:54.382Z,41.54
2022-09-23T22:04:21.743Z,41.21
2022-09-23T22:06:48.846Z,41.43
2022-09-23T22:09:19.669Z,41.47
2022-09-23T22:11:47.327Z,41.33
2022-09-23T22:14:16.246Z,41.04
2022-09-23T22:16:43.643Z,41.66
2022-09-23T22:19:12.369Z,41.25
2022-09-23T22:21:41.845Z,41.67
2022-09-23T22:24:11.592Z,42.15
2022-09-23T22:26:42.363Z,41.34
2022-09-23T22:29:11.643Z,41.35
2022-09-23T22:31:38.845Z,41.51
2022-09-23T22:34:06.120Z,41.66
2022-09-23T22:36:33.605Z,41.68
2022-09-23T22:39:00.703Z,41.87
2022-09-23T22:41:27.786Z,41.68
2022-09-23T22:43:56.323Z,41.18
2022-09-23T22:46:23.448Z,41.27
2022-09-23T22:48:50.803Z,41.93
2022-09-23T22:51:18.222Z,42.30
2022-09-23T22:53:45.282Z,42.03
2022-09-23T22:56:12.523Z,41.59
2022-09-23T22:58:39.663Z,41.95
2022-09-23T23:01:08.586Z,42.18
2022-09-23T23:03:35.746Z,41.83
2022-09-23T23:06:04.545Z,41.25
2022-09-23T23:08:31.904Z,42.05
2022-09-23T23:11:04.063Z,41.69
2022-09-23T23:13:32.383Z,42.05
2022-09-23T23:16:03.708Z,42.16
2022-09-23T23:18:33.463Z,41.52
2022-09-23T23:21:09.168Z,41.52
2022-09-23T23:23:37.823Z,41.34
2022-09-23T23:26:10.108Z,41.28
2022-09-23T23:28:37.226Z,40.95
2022-09-23T23:31:05.472Z,40.49
2022-09-23T23:33:34.683Z,40.34
2022-09-23T23:36:02.323Z,41.62
2022-09-23T23:38:29.761Z,40.58
2022-09-23T23:40:56.990Z,40.81
2022-09-23T23:43:24.141Z,40.42
2022-09-23T23:45:51.601Z,40.90
2022-09-23T23:48:19.523Z,41.16
2022-09-23T23:50:53.844Z,41.52
2022-09-23T23:53:21.171Z,41.58
2022-09-23T23:55:50.167Z,41.37
2022-09-23T23:58:18.149Z,41.45
